Wilmington, New York
Current Conditions -  °F | °C
As of 10:51 PM on Saturday 22 Nov 2014 (Local Time) from KSLK Reporting Station
Haze Haze  
Wind Chill: -1°   Ceiling: 400
Heat Index:   Visibility: 2.5mi
Dew Point:   Wind: 9mph
Humidity: 93%   Direction: 230°SW
Pressure: 29.89"   Gusts: NA
Location:  44.39°N, 73.82°W
Report Text: KSLK 230351Z AUTO 23008KT 2 1/2SM BR OVC004 03/02 A2989 RMK AO2 SLP139 T00280017
Loading
Personal Weather Stations






























Interactive Weather Map New forecast layout! Learn more

10-Day Weather Forecast

Advertisements
Track Severe Weather on mobile